sensor_id;sensor_type;location;lat;lon;timestamp;P1;durP1;ratioP1;P2;durP2;ratioP2
37847;SDS011;23688;33.130;-117.188;2024-01-30T00:00:25;2.95;;;1.38;;
37847;SDS011;23688;33.130;-117.188;2024-01-30T00:02:52;3.60;;;2.08;;
37847;SDS011;23688;33.130;-117.188;2024-01-30T00:05:18;5.30;;;1.58;;
37847;SDS011;23688;33.130;-117.188;2024-01-30T00:07:44;4.10;;;1.27;;
37847;SDS011;23688;33.130;-117.188;2024-01-30T00:10:11;4.18;;;1.17;;
37847;SDS011;23688;33.130;-117.188;2024-01-30T00:12:37;3.00;;;1.60;;
37847;SDS011;23688;33.130;-117.188;2024-01-30T00:15:04;3.42;;;1.20;;
37847;SDS011;23688;33.130;-117.188;2024-01-30T00:17:33;2.08;;;1.15;;
37847;SDS011;23688;33.130;-117.188;2024-01-30T00:19:59;6.03;;;1.17;;
37847;SDS011;23688;33.130;-117.188;2024-01-30T00:22:26;5.88;;;1.75;;
37847;SDS011;23688;33.130;-117.188;2024-01-30T00:24:52;2.72;;;1.45;;
37847;SDS011;23688;33.130;-117.188;2024-01-30T00:27:18;3.55;;;1.17;;
37847;SDS011;23688;33.130;-117.188;2024-01-30T00:29:45;5.88;;;1.58;;
37847;SDS011;23688;33.130;-117.188;2024-01-30T00:32:11;5.15;;;1.23;;
37847;SDS011;23688;33.130;-117.188;2024-01-30T00:34:37;4.68;;;1.02;;
37847;SDS011;23688;33.130;-117.188;2024-01-30T00:37:04;2.67;;;1.10;;
37847;SDS011;23688;33.130;-117.188;2024-01-30T00:39:30;9.07;;;1.52;;
37847;SDS011;23688;33.130;-117.188;2024-01-30T00:41:56;2.47;;;1.25;;
37847;SDS011;23688;33.130;-117.188;2024-01-30T00:44:23;3.13;;;1.17;;
37847;SDS011;23688;33.130;-117.188;2024-01-30T00:46:49;2.30;;;1.10;;
37847;SDS011;23688;33.130;-117.188;2024-01-30T00:49:16;2.03;;;1.10;;
37847;SDS011;23688;33.130;-117.188;2024-01-30T00:51:42;3.63;;;0.95;;
37847;SDS011;23688;33.130;-117.188;2024-01-30T00:54:08;1.48;;;1.00;;
37847;SDS011;23688;33.130;-117.188;2024-01-30T00:56:35;7.07;;;1.42;;
37847;SDS011;23688;33.130;-117.188;2024-01-30T00:59:01;5.15;;;1.20;;
37847;SDS011;23688;33.130;-117.188;2024-01-30T01:01:28;5.68;;;1.50;;
37847;SDS011;23688;33.130;-117.188;2024-01-30T01:03:54;1.92;;;0.85;;
37847;SDS011;23688;33.130;-117.188;2024-01-30T01:06:20;5.57;;;1.30;;
37847;SDS011;23688;33.130;-117.188;2024-01-30T01:08:47;2.95;;;0.85;;
37847;SDS011;23688;33.130;-117.188;2024-01-30T01:11:13;2.25;;;1.08;;
37847;SDS011;23688;33.130;-117.188;2024-01-30T01:13:39;4.30;;;1.38;;
37847;SDS011;23688;33.130;-117.188;2024-01-30T01:16:06;2.10;;;1.08;;
37847;SDS011;23688;33.130;-117.188;2024-01-30T01:18:32;3.75;;;1.40;;
37847;SDS011;23688;33.130;-117.188;2024-01-30T01:20:58;0.82;;;0.73;;
37847;SDS011;23688;33.130;-117.188;2024-01-30T01:23:26;1.58;;;0.75;;
37847;SDS011;23688;33.130;-117.188;2024-01-30T01:25:52;1.77;;;0.95;;
37847;SDS011;23688;33.130;-117.188;2024-01-30T01:28:20;1.50;;;0.90;;
37847;SDS011;23688;33.130;-117.188;2024-01-30T01:30:46;3.45;;;1.05;;
37847;SDS011;23688;33.130;-117.188;2024-01-30T01:33:12;2.55;;;1.02;;
37847;SDS011;23688;33.130;-117.188;2024-01-30T01:35:39;2.53;;;1.30;;
37847;SDS011;23688;33.130;-117.188;2024-01-30T01:38:06;3.50;;;1.15;;
37847;SDS011;23688;33.130;-117.188;2024-01-30T01:40:32;2.35;;;1.00;;
37847;SDS011;23688;33.130;-117.188;2024-01-30T01:42:58;1.23;;;1.08;;
37847;SDS011;23688;33.130;-117.188;2024-01-30T01:45:28;2.65;;;1.00;;
37847;SDS011;23688;33.130;-117.188;2024-01-30T01:47:54;2.40;;;1.33;;
37847;SDS011;23688;33.130;-117.188;2024-01-30T01:50:22;4.63;;;1.08;;
37847;SDS011;23688;33.130;-117.188;2024-01-30T01:52:50;2.83;;;1.00;;
37847;SDS011;23688;33.130;-117.188;2024-01-30T01:55:18;3.90;;;1.10;;
37847;SDS011;23688;33.130;-117.188;2024-01-30T01:57:53;3.92;;;0.95;;
37847;SDS011;23688;33.130;-117.188;2024-01-30T02:00:19;2.38;;;0.75;;
37847;SDS011;23688;33.130;-117.188;2024-01-30T02:02:46;2.70;;;1.08;;
37847;SDS011;23688;33.130;-117.188;2024-01-30T02:05:14;3.38;;;1.00;;
37847;SDS011;23688;33.130;-117.188;2024-01-30T02:07:41;1.13;;;0.90;;
37847;SDS011;23688;33.130;-117.188;2024-01-30T02:10:09;4.40;;;1.90;;
37847;SDS011;23688;33.130;-117.188;2024-01-30T02:12:35;2.42;;;1.77;;
37847;SDS011;23688;33.130;-117.188;2024-01-30T02:15:02;4.82;;;1.60;;
37847;SDS011;23688;33.130;-117.188;2024-01-30T02:17:30;4.85;;;1.40;;
37847;SDS011;23688;33.130;-117.188;2024-01-30T02:19:56;2.83;;;1.33;;
37847;SDS011;23688;33.130;-117.188;2024-01-30T02:22:23;3.83;;;1.00;;
37847;SDS011;23688;33.130;-117.188;2024-01-30T02:24:49;3.60;;;1.10;;
37847;SDS011;23688;33.130;-117.188;2024-01-30T02:27:16;4.65;;;1.10;;
37847;SDS011;23688;33.130;-117.188;2024-01-30T02:29:42;3.10;;;1.10;;
37847;SDS011;23688;33.130;-117.188;2024-01-30T02:32:09;5.75;;;1.38;;
37847;SDS011;23688;33.130;-117.188;2024-01-30T02:34:35;4.05;;;1.17;;
37847;SDS011;23688;33.130;-117.188;2024-01-30T02:37:05;1.92;;;1.10;;
37847;SDS011;23688;33.130;-117.188;2024-01-30T02:39:31;1.75;;;0.80;;
37847;SDS011;23688;33.130;-117.188;2024-01-30T02:41:57;4.90;;;1.17;;
37847;SDS011;23688;33.130;-117.188;2024-01-30T02:44:23;1.10;;;0.80;;
37847;SDS011;23688;33.130;-117.188;2024-01-30T02:46:50;4.93;;;0.82;;
37847;SDS011;23688;33.130;-117.188;2024-01-30T02:49:19;2.30;;;1.00;;
37847;SDS011;23688;33.130;-117.188;2024-01-30T02:51:46;5.28;;;1.13;;
37847;SDS011;23688;33.130;-117.188;2024-01-30T02:54:12;2.97;;;1.60;;
37847;SDS011;23688;33.130;-117.188;2024-01-30T02:56:39;4.72;;;1.52;;
37847;SDS011;23688;33.130;-117.188;2024-01-30T02:59:05;2.80;;;1.55;;
37847;SDS011;23688;33.130;-117.188;2024-01-30T03:01:32;1.58;;;1.35;;
37847;SDS011;23688;33.130;-117.188;2024-01-30T03:03:58;3.53;;;1.27;;
37847;SDS011;23688;33.130;-117.188;2024-01-30T03:06:24;5.45;;;0.98;;
37847;SDS011;23688;33.130;-117.188;2024-01-30T03:08:51;3.63;;;1.75;;
37847;SDS011;23688;33.130;-117.188;2024-01-30T03:11:17;3.38;;;1.42;;
37847;SDS011;23688;33.130;-117.188;2024-01-30T03:13:43;4.07;;;1.48;;
37847;SDS011;23688;33.130;-117.188;2024-01-30T03:16:10;6.00;;;1.40;;
37847;SDS011;23688;33.130;-117.188;2024-01-30T03:18:36;7.85;;;2.17;;
37847;SDS011;23688;33.130;-117.188;2024-01-30T03:21:05;5.95;;;3.13;;
37847;SDS011;23688;33.130;-117.188;2024-01-30T03:23:32;3.70;;;2.00;;
37847;SDS011;23688;33.130;-117.188;2024-01-30T03:25:58;3.33;;;1.38;;
37847;SDS011;23688;33.130;-117.188;2024-01-30T03:28:24;5.13;;;1.48;;
37847;SDS011;23688;33.130;-117.188;2024-01-30T03:30:51;2.08;;;1.15;;
37847;SDS011;23688;33.130;-117.188;2024-01-30T03:33:17;4.78;;;1.10;;
37847;SDS011;23688;33.130;-117.188;2024-01-30T03:35:43;2.55;;;1.88;;
37847;SDS011;23688;33.130;-117.188;2024-01-30T03:38:10;4.60;;;2.70;;
37847;SDS011;23688;33.130;-117.188;2024-01-30T03:40:36;2.97;;;1.90;;
37847;SDS011;23688;33.130;-117.188;2024-01-30T03:43:02;3.83;;;1.23;;
37847;SDS011;23688;33.130;-117.188;2024-01-30T03:45:30;3.72;;;1.15;;
37847;SDS011;23688;33.130;-117.188;2024-01-30T03:47:56;3.85;;;1.40;;
37847;SDS011;23688;33.130;-117.188;2024-01-30T03:50:23;1.95;;;1.40;;
37847;SDS011;23688;33.130;-117.188;2024-01-30T03:52:49;4.97;;;1.20;;
37847;SDS011;23688;33.130;-117.188;2024-01-30T03:55:15;2.33;;;1.23;;
37847;SDS011;23688;33.130;-117.188;2024-01-30T03:57:42;3.65;;;1.95;;
37847;SDS011;23688;33.130;-117.188;2024-01-30T04:00:08;3.22;;;1.05;;
37847;SDS011;23688;33.130;-117.188;2024-01-30T04:02:35;1.30;;;0.80;;
37847;SDS011;23688;33.130;-117.188;2024-01-30T04:05:01;2.20;;;0.90;;
37847;SDS011;23688;33.130;-117.188;2024-01-30T04:07:29;2.55;;;1.10;;
37847;SDS011;23688;33.130;-117.188;2024-01-30T04:09:55;2.37;;;0.97;;
37847;SDS011;23688;33.130;-117.188;2024-01-30T04:12:22;5.88;;;1.25;;
37847;SDS011;23688;33.130;-117.188;2024-01-30T04:14:48;1.30;;;0.95;;
37847;SDS011;23688;33.130;-117.188;2024-01-30T04:17:14;1.98;;;0.82;;
37847;SDS011;23688;33.130;-117.188;2024-01-30T04:19:41;2.33;;;0.90;;
37847;SDS011;23688;33.130;-117.188;2024-01-30T04:22:07;3.25;;;0.98;;
37847;SDS011;23688;33.130;-117.188;2024-01-30T04:24:33;1.35;;;0.80;;
37847;SDS011;23688;33.130;-117.188;2024-01-30T04:26:59;1.85;;;1.17;;
37847;SDS011;23688;33.130;-117.188;2024-01-30T04:29:26;3.15;;;1.10;;
37847;SDS011;23688;33.130;-117.188;2024-01-30T04:31:52;4.10;;;1.50;;
37847;SDS011;23688;33.130;-117.188;2024-01-30T04:34:18;2.53;;;1.75;;
37847;SDS011;23688;33.130;-117.188;2024-01-30T04:36:45;3.00;;;1.73;;
37847;SDS011;23688;33.130;-117.188;2024-01-30T04:39:11;4.00;;;2.28;;
37847;SDS011;23688;33.130;-117.188;2024-01-30T04:41:38;7.32;;;2.38;;
37847;SDS011;23688;33.130;-117.188;2024-01-30T04:44:05;3.65;;;1.83;;
37847;SDS011;23688;33.130;-117.188;2024-01-30T04:46:33;4.28;;;2.20;;
37847;SDS011;23688;33.130;-117.188;2024-01-30T04:48:59;5.60;;;2.20;;
37847;SDS011;23688;33.130;-117.188;2024-01-30T04:51:28;3.88;;;2.08;;
37847;SDS011;23688;33.130;-117.188;2024-01-30T04:53:57;5.38;;;2.30;;
37847;SDS011;23688;33.130;-117.188;2024-01-30T04:56:24;2.92;;;1.67;;
37847;SDS011;23688;33.130;-117.188;2024-01-30T04:58:50;3.75;;;1.58;;
37847;SDS011;23688;33.130;-117.188;2024-01-30T05:01:16;3.08;;;1.35;;
37847;SDS011;23688;33.130;-117.188;2024-01-30T05:03:43;2.78;;;1.27;;
37847;SDS011;23688;33.130;-117.188;2024-01-30T05:06:09;2.00;;;1.27;;
37847;SDS011;23688;33.130;-117.188;2024-01-30T05:08:36;4.03;;;1.30;;
37847;SDS011;23688;33.130;-117.188;2024-01-30T05:11:03;3.28;;;1.38;;
37847;SDS011;23688;33.130;-117.188;2024-01-30T05:13:31;7.00;;;1.60;;
37847;SDS011;23688;33.130;-117.188;2024-01-30T05:15:57;7.75;;;1.50;;
37847;SDS011;23688;33.130;-117.188;2024-01-30T05:18:24;2.92;;;1.15;;
37847;SDS011;23688;33.130;-117.188;2024-01-30T05:20:50;2.55;;;1.00;;
37847;SDS011;23688;33.130;-117.188;2024-01-30T05:23:17;4.97;;;1.75;;
37847;SDS011;23688;33.130;-117.188;2024-01-30T05:25:43;1.55;;;1.35;;
37847;SDS011;23688;33.130;-117.188;2024-01-30T05:28:09;6.03;;;2.03;;
37847;SDS011;23688;33.130;-117.188;2024-01-30T05:30:35;4.43;;;1.33;;
37847;SDS011;23688;33.130;-117.188;2024-01-30T05:33:02;5.63;;;2.28;;
37847;SDS011;23688;33.130;-117.188;2024-01-30T05:35:30;6.75;;;2.92;;
37847;SDS011;23688;33.130;-117.188;2024-01-30T05:37:57;4.03;;;1.77;;
37847;SDS011;23688;33.130;-117.188;2024-01-30T05:40:24;6.55;;;2.45;;
37847;SDS011;23688;33.130;-117.188;2024-01-30T05:42:50;6.22;;;2.55;;
37847;SDS011;23688;33.130;-117.188;2024-01-30T05:45:16;5.68;;;2.05;;
37847;SDS011;23688;33.130;-117.188;2024-01-30T05:47:42;5.18;;;2.47;;
37847;SDS011;23688;33.130;-117.188;2024-01-30T05:50:09;4.25;;;2.70;;
37847;SDS011;23688;33.130;-117.188;2024-01-30T05:52:36;7.63;;;2.45;;
37847;SDS011;23688;33.130;-117.188;2024-01-30T05:55:02;5.40;;;1.80;;
37847;SDS011;23688;33.130;-117.188;2024-01-30T05:57:31;5.60;;;2.00;;
37847;SDS011;23688;33.130;-117.188;2024-01-30T05:59:57;4.10;;;1.67;;
37847;SDS011;23688;33.130;-117.188;2024-01-30T06:02:24;6.05;;;1.23;;
37847;SDS011;23688;33.130;-117.188;2024-01-30T06:04:50;2.70;;;0.82;;
37847;SDS011;23688;33.130;-117.188;2024-01-30T06:07:16;1.75;;;0.80;;
37847;SDS011;23688;33.130;-117.188;2024-01-30T06:09:43;1.45;;;0.90;;
37847;SDS011;23688;33.130;-117.188;2024-01-30T06:12:09;2.60;;;0.80;;
37847;SDS011;23688;33.130;-117.188;2024-01-30T06:14:37;5.90;;;1.60;;
37847;SDS011;23688;33.130;-117.188;2024-01-30T06:17:06;4.28;;;1.30;;
37847;SDS011;23688;33.130;-117.188;2024-01-30T06:19:32;2.35;;;1.10;;
37847;SDS011;23688;33.130;-117.188;2024-01-30T06:21:58;2.60;;;1.35;;
37847;SDS011;23688;33.130;-117.188;2024-01-30T06:24:25;3.58;;;1.25;;
37847;SDS011;23688;33.130;-117.188;2024-01-30T06:26:51;5.05;;;1.20;;
37847;SDS011;23688;33.130;-117.188;2024-01-30T06:29:17;1.85;;;1.25;;
37847;SDS011;23688;33.130;-117.188;2024-01-30T06:31:45;2.72;;;1.55;;
37847;SDS011;23688;33.130;-117.188;2024-01-30T06:34:11;6.00;;;1.80;;
37847;SDS011;23688;33.130;-117.188;2024-01-30T06:36:38;5.13;;;1.70;;
37847;SDS011;23688;33.130;-117.188;2024-01-30T06:39:07;5.55;;;2.42;;
37847;SDS011;23688;33.130;-117.188;2024-01-30T06:41:33;7.53;;;2.00;;
37847;SDS011;23688;33.130;-117.188;2024-01-30T06:44:03;13.07;;;2.90;;
37847;SDS011;23688;33.130;-117.188;2024-01-30T06:46:32;10.93;;;3.80;;
37847;SDS011;23688;33.130;-117.188;2024-01-30T06:48:58;8.15;;;2.50;;
37847;SDS011;23688;33.130;-117.188;2024-01-30T06:51:24;7.85;;;2.67;;
37847;SDS011;23688;33.130;-117.188;2024-01-30T06:53:51;12.13;;;3.50;;
37847;SDS011;23688;33.130;-117.188;2024-01-30T06:56:17;8.13;;;3.25;;
37847;SDS011;23688;33.130;-117.188;2024-01-30T06:58:47;7.93;;;3.47;;
37847;SDS011;23688;33.130;-117.188;2024-01-30T07:01:14;5.65;;;2.95;;
37847;SDS011;23688;33.130;-117.188;2024-01-30T07:03:40;7.05;;;3.47;;
37847;SDS011;23688;33.130;-117.188;2024-01-30T07:06:07;8.13;;;2.50;;
37847;SDS011;23688;33.130;-117.188;2024-01-30T07:08:33;4.95;;;3.05;;
37847;SDS011;23688;33.130;-117.188;2024-01-30T07:11:00;8.95;;;2.55;;
37847;SDS011;23688;33.130;-117.188;2024-01-30T07:13:27;7.22;;;2.83;;
37847;SDS011;23688;33.130;-117.188;2024-01-30T07:15:54;8.95;;;2.83;;
37847;SDS011;23688;33.130;-117.188;2024-01-30T07:18:20;13.48;;;2.88;;
37847;SDS011;23688;33.130;-117.188;2024-01-30T07:20:46;5.90;;;3.30;;
37847;SDS011;23688;33.130;-117.188;2024-01-30T07:23:15;15.02;;;3.63;;
37847;SDS011;23688;33.130;-117.188;2024-01-30T07:25:46;8.95;;;3.10;;
37847;SDS011;23688;33.130;-117.188;2024-01-30T07:28:16;8.70;;;3.60;;
37847;SDS011;23688;33.130;-117.188;2024-01-30T07:30:43;9.25;;;4.28;;
37847;SDS011;23688;33.130;-117.188;2024-01-30T07:33:09;11.20;;;3.10;;
37847;SDS011;23688;33.130;-117.188;2024-01-30T07:35:36;6.88;;;2.70;;
37847;SDS011;23688;33.130;-117.188;2024-01-30T07:38:02;7.00;;;3.03;;
37847;SDS011;23688;33.130;-117.188;2024-01-30T07:40:28;7.82;;;2.60;;
37847;SDS011;23688;33.130;-117.188;2024-01-30T07:42:55;7.40;;;2.15;;
37847;SDS011;23688;33.130;-117.188;2024-01-30T07:45:21;7.30;;;2.90;;
37847;SDS011;23688;33.130;-117.188;2024-01-30T07:47:49;13.10;;;3.10;;
37847;SDS011;23688;33.130;-117.188;2024-01-30T07:50:16;12.98;;;3.05;;
37847;SDS011;23688;33.130;-117.188;2024-01-30T07:52:43;10.45;;;3.20;;
37847;SDS011;23688;33.130;-117.188;2024-01-30T07:55:09;7.05;;;2.63;;
37847;SDS011;23688;33.130;-117.188;2024-01-30T07:57:38;5.97;;;2.20;;
37847;SDS011;23688;33.130;-117.188;2024-01-30T08:00:05;5.43;;;2.50;;
37847;SDS011;23688;33.130;-117.188;2024-01-30T08:02:32;7.55;;;2.63;;
37847;SDS011;23688;33.130;-117.188;2024-01-30T08:04:59;5.82;;;2.92;;
37847;SDS011;23688;33.130;-117.188;2024-01-30T08:07:25;3.85;;;2.85;;
37847;SDS011;23688;33.130;-117.188;2024-01-30T08:09:51;8.98;;;3.10;;
37847;SDS011;23688;33.130;-117.188;2024-01-30T08:12:17;5.88;;;2.80;;
37847;SDS011;23688;33.130;-117.188;2024-01-30T08:14:45;9.00;;;3.67;;
37847;SDS011;23688;33.130;-117.188;2024-01-30T08:17:12;7.97;;;3.28;;
37847;SDS011;23688;33.130;-117.188;2024-01-30T08:19:38;8.60;;;3.20;;
37847;SDS011;23688;33.130;-117.188;2024-01-30T08:22:04;13.02;;;3.38;;
37847;SDS011;23688;33.130;-117.188;2024-01-30T08:24:31;6.55;;;3.28;;
37847;SDS011;23688;33.130;-117.188;2024-01-30T08:26:57;4.80;;;2.28;;
37847;SDS011;23688;33.130;-117.188;2024-01-30T08:29:23;4.72;;;2.45;;
37847;SDS011;23688;33.130;-117.188;2024-01-30T08:31:50;7.95;;;2.70;;
37847;SDS011;23688;33.130;-117.188;2024-01-30T08:34:16;3.58;;;2.20;;
37847;SDS011;23688;33.130;-117.188;2024-01-30T08:36:43;5.22;;;2.40;;
37847;SDS011;23688;33.130;-117.188;2024-01-30T08:39:10;3.67;;;2.28;;
37847;SDS011;23688;33.130;-117.188;2024-01-30T08:41:36;5.20;;;2.10;;
37847;SDS011;23688;33.130;-117.188;2024-01-30T08:44:05;11.93;;;3.17;;
37847;SDS011;23688;33.130;-117.188;2024-01-30T08:46:31;6.53;;;2.85;;
37847;SDS011;23688;33.130;-117.188;2024-01-30T08:48:58;5.25;;;2.22;;
37847;SDS011;23688;33.130;-117.188;2024-01-30T08:51:24;10.32;;;1.80;;
37847;SDS011;23688;33.130;-117.188;2024-01-30T08:53:52;3.13;;;1.73;;
37847;SDS011;23688;33.130;-117.188;2024-01-30T08:56:19;4.00;;;1.65;;
37847;SDS011;23688;33.130;-117.188;2024-01-30T08:58:45;5.00;;;2.30;;
37847;SDS011;23688;33.130;-117.188;2024-01-30T09:01:12;11.30;;;2.38;;
37847;SDS011;23688;33.130;-117.188;2024-01-30T09:03:38;6.75;;;2.03;;
37847;SDS011;23688;33.130;-117.188;2024-01-30T09:06:12;5.85;;;2.22;;
37847;SDS011;23688;33.130;-117.188;2024-01-30T09:08:39;4.47;;;1.73;;
37847;SDS011;23688;33.130;-117.188;2024-01-30T09:11:12;3.80;;;2.10;;
37847;SDS011;23688;33.130;-117.188;2024-01-30T09:13:39;9.15;;;2.10;;
37847;SDS011;23688;33.130;-117.188;2024-01-30T09:16:06;4.93;;;2.05;;
37847;SDS011;23688;33.130;-117.188;2024-01-30T09:18:32;4.13;;;1.80;;
37847;SDS011;23688;33.130;-117.188;2024-01-30T09:20:59;8.50;;;2.33;;
37847;SDS011;23688;33.130;-117.188;2024-01-30T09:23:28;6.45;;;2.60;;
37847;SDS011;23688;33.130;-117.188;2024-01-30T09:25:57;3.35;;;1.85;;
37847;SDS011;23688;33.130;-117.188;2024-01-30T09:28:23;3.83;;;1.73;;
37847;SDS011;23688;33.130;-117.188;2024-01-30T09:30:49;4.25;;;2.10;;
37847;SDS011;23688;33.130;-117.188;2024-01-30T09:33:16;6.35;;;2.13;;
37847;SDS011;23688;33.130;-117.188;2024-01-30T09:35:42;6.32;;;1.88;;
37847;SDS011;23688;33.130;-117.188;2024-01-30T09:38:08;8.40;;;2.03;;
37847;SDS011;23688;33.130;-117.188;2024-01-30T09:40:36;7.63;;;2.00;;
37847;SDS011;23688;33.130;-117.188;2024-01-30T09:43:02;4.85;;;1.58;;
37847;SDS011;23688;33.130;-117.188;2024-01-30T09:45:28;1.58;;;1.10;;
37847;SDS011;23688;33.130;-117.188;2024-01-30T09:47:58;3.30;;;1.38;;
37847;SDS011;23688;33.130;-117.188;2024-01-30T09:50:25;3.17;;;1.45;;
37847;SDS011;23688;33.130;-117.188;2024-01-30T09:52:53;2.95;;;1.48;;
37847;SDS011;23688;33.130;-117.188;2024-01-30T09:55:22;4.10;;;1.63;;
37847;SDS011;23688;33.130;-117.188;2024-01-30T09:57:49;5.07;;;2.08;;
37847;SDS011;23688;33.130;-117.188;2024-01-30T10:00:15;5.13;;;1.80;;
37847;SDS011;23688;33.130;-117.188;2024-01-30T10:02:42;6.07;;;1.70;;
37847;SDS011;23688;33.130;-117.188;2024-01-30T10:05:10;3.13;;;1.50;;
37847;SDS011;23688;33.130;-117.188;2024-01-30T10:08:05;2.05;;;1.33;;
37847;SDS011;23688;33.130;-117.188;2024-01-30T10:10:33;4.97;;;1.55;;
37847;SDS011;23688;33.130;-117.188;2024-01-30T10:13:01;4.72;;;2.30;;
37847;SDS011;23688;33.130;-117.188;2024-01-30T10:15:28;3.38;;;1.55;;
37847;SDS011;23688;33.130;-117.188;2024-01-30T10:17:54;4.93;;;1.85;;
37847;SDS011;23688;33.130;-117.188;2024-01-30T10:20:21;3.30;;;1.70;;
37847;SDS011;23688;33.130;-117.188;2024-01-30T10:22:48;2.92;;;1.30;;
37847;SDS011;23688;33.130;-117.188;2024-01-30T10:25:15;6.78;;;1.95;;
37847;SDS011;23688;33.130;-117.188;2024-01-30T10:27:41;10.98;;;2.30;;
37847;SDS011;23688;33.130;-117.188;2024-01-30T10:30:08;3.28;;;1.65;;
37847;SDS011;23688;33.130;-117.188;2024-01-30T10:32:34;2.47;;;1.58;;
37847;SDS011;23688;33.130;-117.188;2024-01-30T10:35:01;3.35;;;1.40;;
37847;SDS011;23688;33.130;-117.188;2024-01-30T10:37:28;3.75;;;1.52;;
37847;SDS011;23688;33.130;-117.188;2024-01-30T10:39:58;2.72;;;1.75;;
37847;SDS011;23688;33.130;-117.188;2024-01-30T10:42:29;5.35;;;1.60;;
37847;SDS011;23688;33.130;-117.188;2024-01-30T10:45:07;4.32;;;1.80;;
37847;SDS011;23688;33.130;-117.188;2024-01-30T10:47:49;3.13;;;1.65;;
37847;SDS011;23688;33.130;-117.188;2024-01-30T10:50:16;4.75;;;1.30;;
37847;SDS011;23688;33.130;-117.188;2024-01-30T10:52:43;3.00;;;1.35;;
37847;SDS011;23688;33.130;-117.188;2024-01-30T10:55:10;3.25;;;1.42;;
37847;SDS011;23688;33.130;-117.188;2024-01-30T10:57:37;4.78;;;1.52;;
37847;SDS011;23688;33.130;-117.188;2024-01-30T11:00:10;5.07;;;1.33;;
37847;SDS011;23688;33.130;-117.188;2024-01-30T11:02:38;3.97;;;1.48;;
37847;SDS011;23688;33.130;-117.188;2024-01-30T11:05:07;1.92;;;1.13;;
37847;SDS011;23688;33.130;-117.188;2024-01-30T11:07:34;7.18;;;1.60;;
37847;SDS011;23688;33.130;-117.188;2024-01-30T11:10:04;3.65;;;1.15;;
37847;SDS011;23688;33.130;-117.188;2024-01-30T11:12:33;2.67;;;1.48;;
37847;SDS011;23688;33.130;-117.188;2024-01-30T11:15:09;1.95;;;1.13;;
37847;SDS011;23688;33.130;-117.188;2024-01-30T11:17:41;3.22;;;1.20;;
37847;SDS011;23688;33.130;-117.188;2024-01-30T11:20:29;6.30;;;1.75;;
37847;SDS011;23688;33.130;-117.188;2024-01-30T11:22:57;3.90;;;1.20;;
37847;SDS011;23688;33.130;-117.188;2024-01-30T11:25:24;3.30;;;1.75;;
37847;SDS011;23688;33.130;-117.188;2024-01-30T11:27:54;4.55;;;1.42;;
37847;SDS011;23688;33.130;-117.188;2024-01-30T11:30:22;2.83;;;1.63;;
37847;SDS011;23688;33.130;-117.188;2024-01-30T11:33:02;4.38;;;1.60;;
37847;SDS011;23688;33.130;-117.188;2024-01-30T11:35:37;3.88;;;1.30;;
37847;SDS011;23688;33.130;-117.188;2024-01-30T11:38:05;3.47;;;1.35;;
37847;SDS011;23688;33.130;-117.188;2024-01-30T11:40:33;2.42;;;1.40;;
37847;SDS011;23688;33.130;-117.188;2024-01-30T11:43:02;4.00;;;1.40;;
37847;SDS011;23688;33.130;-117.188;2024-01-30T11:45:30;4.15;;;1.83;;
37847;SDS011;23688;33.130;-117.188;2024-01-30T11:47:57;5.07;;;1.70;;
37847;SDS011;23688;33.130;-117.188;2024-01-30T11:50:34;3.28;;;1.60;;
37847;SDS011;23688;33.130;-117.188;2024-01-30T11:53:05;5.10;;;1.60;;
37847;SDS011;23688;33.130;-117.188;2024-01-30T11:55:32;2.28;;;1.40;;
37847;SDS011;23688;33.130;-117.188;2024-01-30T11:58:01;4.20;;;2.30;;
37847;SDS011;23688;33.130;-117.188;2024-01-30T12:00:27;5.78;;;1.75;;
37847;SDS011;23688;33.130;-117.188;2024-01-30T12:02:56;4.65;;;1.52;;
37847;SDS011;23688;33.130;-117.188;2024-01-30T12:05:23;3.90;;;1.52;;
37847;SDS011;23688;33.130;-117.188;2024-01-30T12:07:50;3.10;;;1.48;;
37847;SDS011;23688;33.130;-117.188;2024-01-30T12:10:17;5.07;;;1.23;;
37847;SDS011;23688;33.130;-117.188;2024-01-30T12:12:47;6.18;;;1.65;;
37847;SDS011;23688;33.130;-117.188;2024-01-30T12:15:15;3.15;;;1.70;;
37847;SDS011;23688;33.130;-117.188;2024-01-30T12:17:42;2.67;;;1.50;;
37847;SDS011;23688;33.130;-117.188;2024-01-30T12:20:13;6.80;;;1.50;;
37847;SDS011;23688;33.130;-117.188;2024-01-30T12:22:43;2.33;;;1.17;;
37847;SDS011;23688;33.130;-117.188;2024-01-30T12:25:11;1.85;;;1.15;;
37847;SDS011;23688;33.130;-117.188;2024-01-30T12:27:41;9.45;;;1.77;;
37847;SDS011;23688;33.130;-117.188;2024-01-30T12:30:12;3.03;;;1.52;;
37847;SDS011;23688;33.130;-117.188;2024-01-30T12:32:40;2.97;;;1.50;;
37847;SDS011;23688;33.130;-117.188;2024-01-30T12:35:14;5.82;;;2.05;;
37847;SDS011;23688;33.130;-117.188;2024-01-30T12:37:42;7.55;;;1.42;;
37847;SDS011;23688;33.130;-117.188;2024-01-30T12:40:10;2.80;;;1.60;;
37847;SDS011;23688;33.130;-117.188;2024-01-30T12:42:40;2.40;;;1.65;;
37847;SDS011;23688;33.130;-117.188;2024-01-30T12:45:11;4.30;;;1.77;;
37847;SDS011;23688;33.130;-117.188;2024-01-30T12:47:40;3.58;;;1.98;;
37847;SDS011;23688;33.130;-117.188;2024-01-30T12:50:07;3.30;;;1.33;;
37847;SDS011;23688;33.130;-117.188;2024-01-30T12:52:34;6.20;;;1.67;;
37847;SDS011;23688;33.130;-117.188;2024-01-30T12:55:01;3.70;;;1.50;;
37847;SDS011;23688;33.130;-117.188;2024-01-30T12:57:29;8.43;;;1.80;;
37847;SDS011;23688;33.130;-117.188;2024-01-30T12:59:55;6.03;;;1.38;;
37847;SDS011;23688;33.130;-117.188;2024-01-30T13:02:21;7.05;;;1.60;;
37847;SDS011;23688;33.130;-117.188;2024-01-30T13:04:48;6.97;;;2.08;;
37847;SDS011;23688;33.130;-117.188;2024-01-30T13:07:15;4.57;;;2.03;;
37847;SDS011;23688;33.130;-117.188;2024-01-30T13:09:41;5.65;;;2.50;;
37847;SDS011;23688;33.130;-117.188;2024-01-30T13:12:07;2.72;;;1.80;;
37847;SDS011;23688;33.130;-117.188;2024-01-30T13:14:34;3.35;;;1.98;;
37847;SDS011;23688;33.130;-117.188;2024-01-30T13:17:00;7.10;;;1.92;;
37847;SDS011;23688;33.130;-117.188;2024-01-30T13:19:26;3.55;;;1.98;;
37847;SDS011;23688;33.130;-117.188;2024-01-30T13:21:53;5.90;;;1.65;;
37847;SDS011;23688;33.130;-117.188;2024-01-30T13:24:19;2.90;;;1.67;;
37847;SDS011;23688;33.130;-117.188;2024-01-30T13:26:48;2.67;;;1.67;;
37847;SDS011;23688;33.130;-117.188;2024-01-30T13:29:15;3.72;;;1.52;;
37847;SDS011;23688;33.130;-117.188;2024-01-30T13:31:41;6.13;;;1.65;;
37847;SDS011;23688;33.130;-117.188;2024-01-30T13:34:09;3.33;;;1.40;;
37847;SDS011;23688;33.130;-117.188;2024-01-30T13:36:35;7.80;;;1.40;;
37847;SDS011;23688;33.130;-117.188;2024-01-30T13:39:02;2.33;;;1.35;;
37847;SDS011;23688;33.130;-117.188;2024-01-30T13:41:30;3.00;;;1.33;;
37847;SDS011;23688;33.130;-117.188;2024-01-30T13:43:56;6.75;;;1.42;;
37847;SDS011;23688;33.130;-117.188;2024-01-30T13:46:22;7.15;;;1.80;;
37847;SDS011;23688;33.130;-117.188;2024-01-30T13:48:48;3.20;;;1.40;;
37847;SDS011;23688;33.130;-117.188;2024-01-30T13:51:15;3.20;;;1.73;;
37847;SDS011;23688;33.130;-117.188;2024-01-30T13:53:42;4.18;;;1.15;;
37847;SDS011;23688;33.130;-117.188;2024-01-30T13:56:09;7.88;;;1.73;;
37847;SDS011;23688;33.130;-117.188;2024-01-30T13:58:35;4.70;;;1.60;;
37847;SDS011;23688;33.130;-117.188;2024-01-30T14:01:02;3.78;;;1.95;;
37847;SDS011;23688;33.130;-117.188;2024-01-30T14:03:28;2.08;;;1.10;;
37847;SDS011;23688;33.130;-117.188;2024-01-30T14:05:55;5.03;;;1.13;;
37847;SDS011;23688;33.130;-117.188;2024-01-30T14:08:21;1.92;;;1.35;;